createdAt,value
2023-04-14T00:02:09.543Z,59.37
2023-04-14T00:04:38.508Z,67.05
2023-04-14T00:07:07.330Z,65.31
2023-04-14T00:09:36.316Z,61.01
2023-04-14T00:12:06.916Z,55.77
2023-04-14T00:14:36.222Z,56.44
2023-04-14T00:17:04.957Z,59.18
2023-04-14T00:19:33.666Z,65.79
2023-04-14T00:22:02.892Z,67.17
2023-04-14T00:24:31.588Z,61.42
2023-04-14T00:27:01.308Z,56.37
2023-04-14T00:29:30.043Z,56.49
2023-04-14T00:31:58.776Z,59.41
2023-04-14T00:34:27.617Z,62.57
2023-04-14T00:36:56.294Z,69.29
2023-04-14T00:39:25.147Z,63.31
2023-04-14T00:41:53.823Z,58.28
2023-04-14T00:44:23.458Z,56.05
2023-04-14T00:46:52.882Z,58.71
2023-04-14T00:49:21.584Z,61.17
2023-04-14T00:51:50.480Z,69.39
2023-04-14T00:54:20.037Z,65.83
2023-04-14T00:56:50.806Z,60.45
2023-04-14T00:59:19.758Z,55.73
2023-04-14T01:01:48.445Z,57.36
2023-04-14T01:04:18.321Z,60.09
2023-04-14T01:06:47.077Z,63.97
2023-04-14T01:09:16.528Z,69.00
2023-04-14T01:11:51.345Z,62.36
2023-04-14T01:14:48.047Z,57.08
2023-04-14T01:17:32.023Z,57.13
2023-04-14T01:20:27.752Z,59.97
2023-04-14T01:23:11.518Z,65.73
2023-04-14T01:25:58.851Z,67.42
2023-04-14T01:28:41.587Z,60.76
2023-04-14T01:31:24.018Z,55.83
2023-04-14T01:34:08.530Z,56.87
2023-04-14T01:36:44.099Z,59.64
2023-04-14T01:39:19.047Z,63.11
2023-04-14T01:41:56.755Z,69.30
2023-04-14T01:44:26.855Z,62.78
2023-04-14T01:46:59.565Z,57.40
2023-04-14T01:49:30.501Z,56.48
2023-04-14T01:52:01.799Z,59.24
2023-04-14T01:54:32.425Z,60.44
2023-04-14T01:57:03.933Z,69.25
2023-04-14T01:59:34.285Z,65.94
2023-04-14T02:02:07.979Z,60.35
2023-04-14T02:04:38.505Z,55.64
2023-04-14T02:07:10.061Z,57.20
2023-04-14T02:09:42.047Z,59.89
2023-04-14T02:12:12.753Z,62.79
2023-04-14T02:14:43.344Z,69.23
2023-04-14T02:17:13.837Z,62.76
2023-04-14T02:19:44.347Z,57.14
2023-04-14T02:22:13.654Z,56.38
2023-04-14T02:24:42.370Z,59.01
2023-04-14T02:27:17.078Z,61.50
2023-04-14T02:29:53.779Z,69.97
2023-04-14T02:32:27.509Z,65.19
2023-04-14T02:35:04.636Z,60.35
2023-04-14T02:37:39.067Z,55.62
2023-04-14T02:40:14.711Z,57.27
2023-04-14T02:42:48.206Z,59.89
2023-04-14T02:45:26.141Z,64.10
2023-04-14T02:47:58.404Z,68.81
2023-04-14T02:50:30.385Z,62.11
2023-04-14T02:53:00.552Z,57.07
2023-04-14T02:55:30.839Z,56.41
2023-04-14T02:58:00.529Z,58.99
2023-04-14T03:00:29.822Z,61.79
2023-04-14T03:03:01.241Z,69.39
2023-04-14T03:05:32.356Z,64.25
2023-04-14T03:08:03.748Z,59.21
2023-04-14T03:10:33.231Z,55.63
2023-04-14T03:13:03.462Z,57.95
2023-04-14T03:15:33.584Z,60.61
2023-04-14T03:18:03.931Z,67.98
2023-04-14T03:20:33.687Z,65.06
2023-04-14T03:23:06.508Z,59.55
2023-04-14T03:25:38.136Z,55.56
2023-04-14T03:28:13.643Z,57.46
2023-04-14T03:30:46.665Z,60.06
2023-04-14T03:33:20.700Z,62.22
2023-04-14T03:35:50.681Z,70.63
2023-04-14T03:38:20.842Z,64.73
2023-04-14T03:40:50.773Z,59.02
2023-04-14T03:43:22.716Z,55.87
2023-04-14T03:45:52.542Z,58.12
2023-04-14T03:48:26.230Z,60.90
2023-04-14T03:50:57.796Z,68.23
2023-04-14T03:53:29.588Z,64.79
2023-04-14T03:55:59.959Z,58.93
2023-04-14T03:58:30.016Z,55.71
2023-04-14T04:00:59.592Z,58.15
2023-04-14T04:03:29.586Z,60.53
2023-04-14T04:05:58.994Z,68.21
2023-04-14T04:08:28.762Z,65.12
2023-04-14T04:10:58.054Z,58.72
2023-04-14T04:13:27.777Z,55.87
2023-04-14T04:15:58.834Z,58.03
2023-04-14T04:18:29.433Z,60.51
2023-04-14T04:21:00.125Z,68.00
2023-04-14T04:23:32.533Z,64.67
2023-04-14T04:26:02.075Z,58.32
2023-04-14T04:28:31.716Z,55.61
2023-04-14T04:31:01.165Z,58.05
2023-04-14T04:33:30.418Z,60.19
2023-04-14T04:36:00.622Z,67.70
2023-04-14T04:38:29.270Z,65.09
2023-04-14T04:40:58.256Z,59.17
2023-04-14T04:43:26.898Z,55.50
2023-04-14T04:45:58.318Z,57.43
2023-04-14T04:48:27.045Z,60.37
2023-04-14T04:50:55.862Z,67.62
2023-04-14T04:53:24.606Z,64.57
2023-04-14T04:55:53.295Z,58.66
2023-04-14T04:58:21.935Z,55.64
2023-04-14T05:00:50.585Z,57.76
2023-04-14T05:03:19.288Z,60.24
2023-04-14T05:05:47.998Z,62.25
2023-04-14T05:08:16.753Z,70.33
2023-04-14T05:10:45.772Z,65.23
2023-04-14T05:13:14.445Z,60.19
2023-04-14T05:15:43.402Z,55.74
2023-04-14T05:18:12.105Z,56.76
2023-04-14T05:20:40.978Z,59.19
2023-04-14T05:23:09.667Z,61.78
2023-04-14T05:25:38.467Z,69.68
2023-04-14T05:28:08.360Z,65.96
2023-04-14T05:30:37.050Z,59.94
2023-04-14T05:33:05.827Z,55.74
2023-04-14T05:35:34.515Z,57.46
2023-04-14T05:38:03.197Z,60.14
2023-04-14T05:40:34.729Z,62.15
2023-04-14T05:43:03.870Z,70.63
2023-04-14T05:45:33.407Z,65.16
2023-04-14T05:48:02.297Z,59.17
2023-04-14T05:50:30.994Z,55.76
2023-04-14T05:52:59.933Z,57.86
2023-04-14T05:55:28.600Z,60.27
2023-04-14T05:57:57.250Z,64.18
2023-04-14T06:00:25.992Z,68.85
2023-04-14T06:02:54.987Z,62.42
2023-04-14T06:05:25.259Z,57.20
2023-04-14T06:07:54.061Z,56.13
2023-04-14T06:10:22.765Z,58.76
2023-04-14T06:12:51.500Z,61.32
2023-04-14T06:15:20.277Z,69.02
2023-04-14T06:17:49.092Z,65.62
2023-04-14T06:20:18.765Z,59.33
2023-04-14T06:22:48.050Z,55.63
2023-04-14T06:25:16.925Z,57.65
2023-04-14T06:27:45.669Z,60.72
2023-04-14T06:30:16.905Z,67.77
2023-04-14T06:32:46.601Z,64.97
2023-04-14T06:35:29.681Z,58.85
2023-04-14T06:38:02.361Z,56.00
2023-04-14T06:40:31.259Z,58.85
2023-04-14T06:42:59.921Z,61.36
2023-04-14T06:45:28.624Z,68.90
2023-04-14T06:47:57.452Z,65.35
2023-04-14T06:50:26.128Z,59.63
2023-04-14T06:52:54.785Z,55.73
2023-04-14T06:55:23.447Z,57.43
2023-04-14T06:57:52.126Z,59.97
2023-04-14T07:00:21.259Z,62.44
2023-04-14T07:02:49.987Z,70.11
2023-04-14T07:05:19.408Z,64.41
2023-04-14T07:07:48.101Z,59.22
2023-04-14T07:10:16.815Z,55.79
2023-04-14T07:12:45.671Z,57.42
2023-04-14T07:15:14.461Z,60.19
2023-04-14T07:17:43.198Z,67.61
2023-04-14T07:20:12.001Z,64.62
2023-04-14T07:22:40.745Z,58.70
2023-04-14T07:25:09.590Z,56.02
2023-04-14T07:27:38.330Z,58.61
2023-04-14T07:30:07.944Z,60.83
2023-04-14T07:32:37.348Z,68.25
2023-04-14T07:35:10.964Z,64.81
2023-04-14T07:37:39.721Z,59.01
2023-04-14T07:40:09.207Z,55.50
2023-04-14T07:42:37.935Z,57.67
2023-04-14T07:45:07.848Z,60.32
2023-04-14T07:47:37.416Z,67.56
2023-04-14T07:50:06.708Z,64.34
2023-04-14T07:52:35.430Z,58.49
2023-04-14T07:55:04.658Z,55.81
2023-04-14T07:57:34.458Z,58.03
2023-04-14T08:00:04.085Z,60.81
2023-04-14T08:02:32.977Z,68.09
2023-04-14T08:05:02.549Z,64.92
2023-04-14T08:07:32.152Z,58.20
2023-04-14T08:10:01.166Z,55.96
2023-04-14T08:12:29.901Z,57.97
2023-04-14T08:14:58.582Z,60.21
2023-04-14T08:17:27.338Z,67.79
2023-04-14T08:19:56.109Z,64.22
2023-04-14T08:22:25.679Z,58.40
2023-04-14T08:24:54.361Z,55.57
2023-04-14T08:27:23.105Z,57.49
2023-04-14T08:29:51.846Z,59.94
2023-04-14T08:32:20.766Z,66.71
2023-04-14T08:35:39.096Z,63.69
2023-04-14T08:37:38.157Z,56.84
2023-04-14T08:40:10.300Z,56.37
2023-04-14T08:42:39.083Z,59.04
2023-04-14T08:45:08.115Z,60.78
2023-04-14T08:47:39.661Z,68.82
2023-04-14T08:50:22.052Z,65.21
2023-04-14T08:52:56.843Z,57.26
2023-04-14T08:55:26.477Z,55.60
2023-04-14T08:57:56.061Z,58.19
2023-04-14T09:00:25.529Z,61.16
2023-04-14T09:02:56.088Z,67.75
2023-04-14T09:05:25.618Z,63.71
2023-04-14T09:07:54.305Z,56.82
2023-04-14T09:10:23.305Z,56.00
2023-04-14T09:12:52.784Z,58.25
2023-04-14T09:15:21.683Z,60.96
2023-04-14T09:17:51.070Z,67.99
2023-04-14T09:20:38.393Z,64.14
2023-04-14T09:23:10.306Z,57.10
2023-04-14T09:25:40.908Z,55.10
2023-04-14T09:28:11.006Z,57.33
2023-04-14T09:30:40.360Z,59.48
2023-04-14T09:35:55.550Z,69.06
2023-04-14T09:38:39.567Z,63.31
2023-04-14T09:41:08.836Z,56.78
2023-04-14T09:43:37.637Z,55.48
2023-04-14T09:46:08.666Z,57.45
2023-04-14T09:48:56.885Z,59.39
2023-04-14T09:51:29.872Z,60.97
2023-04-14T09:54:05.363Z,69.28
2023-04-14T09:56:34.482Z,63.04
2023-04-14T09:59:03.978Z,56.31
2023-04-14T10:01:34.244Z,55.29
2023-04-14T10:04:03.872Z,57.09
2023-04-14T10:06:32.651Z,59.89
2023-04-14T10:09:01.814Z,67.18
2023-04-14T10:11:35.547Z,63.21
2023-04-14T10:14:06.456Z,55.68
2023-04-14T10:16:36.001Z,55.13
2023-04-14T10:19:05.824Z,57.70
2023-04-14T10:21:35.705Z,59.66
2023-04-14T10:24:04.844Z,65.69
2023-04-14T10:26:34.830Z,61.77
2023-04-14T10:29:03.711Z,56.50
2023-04-14T10:31:36.976Z,55.04
2023-04-14T10:34:09.428Z,56.59
2023-04-14T10:36:38.913Z,58.45
2023-04-14T10:39:08.404Z,60.05
2023-04-14T10:41:48.618Z,66.10
2023-04-14T10:44:35.466Z,60.15
2023-04-14T10:47:07.484Z,53.55
2023-04-14T10:49:41.064Z,55.84
2023-04-14T10:52:12.659Z,57.19
2023-04-14T10:54:57.249Z,58.09
2023-04-14T10:57:27.957Z,59.29
2023-04-14T11:00:00.446Z,66.06
2023-04-14T11:02:34.460Z,60.79
2023-04-14T11:05:11.585Z,54.54
2023-04-14T11:07:47.662Z,54.76
2023-04-14T11:10:19.484Z,56.35
2023-04-14T11:13:02.120Z,57.60
2023-04-14T11:15:50.404Z,59.27
2023-04-14T11:18:28.261Z,65.76
2023-04-14T11:21:07.403Z,60.10
2023-04-14T11:23:38.265Z,53.33
2023-04-14T11:26:09.448Z,52.84
2023-04-14T11:28:40.725Z,54.84
2023-04-14T11:31:12.092Z,56.62
2023-04-14T11:33:42.207Z,56.70
2023-04-14T11:36:12.822Z,57.88
2023-04-14T11:38:42.917Z,58.66
2023-04-14T11:41:15.314Z,65.85
2023-04-14T11:43:47.071Z,62.63
2023-04-14T11:46:19.797Z,52.94
2023-04-14T11:48:54.177Z,52.31
2023-04-14T11:51:30.611Z,53.29
2023-04-14T11:54:00.647Z,54.58
2023-04-14T11:56:31.008Z,57.38
2023-04-14T11:59:02.061Z,57.15
2023-04-14T12:01:31.629Z,58.49
2023-04-14T12:04:00.611Z,58.92
2023-04-14T12:06:36.576Z,59.71
2023-04-14T12:09:09.032Z,65.10
2023-04-14T12:11:38.271Z,56.60
2023-04-14T12:14:07.210Z,51.94
2023-04-14T12:16:36.128Z,53.75
2023-04-14T12:19:05.218Z,52.36
2023-04-14T12:21:34.121Z,56.27
2023-04-14T12:24:02.940Z,54.56
2023-04-14T12:26:32.666Z,56.39
2023-04-14T12:29:02.107Z,58.30
2023-04-14T12:31:31.496Z,57.10
2023-04-14T12:34:03.672Z,57.16
2023-04-14T12:36:48.752Z,56.16
2023-04-14T12:39:19.519Z,57.15
2023-04-14T12:41:48.832Z,55.49
2023-04-14T12:44:20.527Z,56.84
2023-04-14T12:46:53.742Z,57.15
2023-04-14T12:49:33.351Z,58.14
2023-04-14T12:52:07.950Z,56.15
2023-04-14T12:54:52.100Z,57.10
2023-04-14T12:57:21.938Z,54.12
2023-04-14T12:59:50.975Z,54.37
2023-04-14T13:02:19.869Z,53.86
2023-04-14T13:04:49.496Z,54.06
2023-04-14T13:07:18.758Z,52.59
2023-04-14T13:09:47.711Z,52.88
2023-04-14T13:12:16.479Z,51.99
2023-04-14T13:14:45.318Z,51.58
2023-04-14T13:17:14.108Z,50.95
2023-04-14T13:19:43.441Z,50.16
2023-04-14T13:22:13.596Z,50.71
2023-04-14T13:24:42.556Z,49.79
2023-04-14T13:27:11.703Z,51.74
2023-04-14T13:29:42.200Z,51.66
2023-04-14T13:32:12.084Z,51.44
2023-04-14T13:34:40.959Z,50.98
2023-04-14T13:37:09.638Z,50.94
2023-04-14T13:39:38.335Z,51.64
2023-04-14T13:42:06.993Z,51.90
2023-04-14T13:44:35.825Z,51.88
2023-04-14T13:47:04.604Z,52.16
2023-04-14T13:49:33.266Z,52.70
2023-04-14T13:52:01.993Z,52.95
2023-04-14T13:54:30.745Z,52.64
2023-04-14T13:56:59.463Z,52.19
2023-04-14T13:59:28.177Z,52.13
2023-04-14T14:01:56.960Z,51.95
2023-04-14T14:04:26.360Z,52.17
2023-04-14T14:06:55.212Z,51.46
2023-04-14T14:09:24.173Z,52.05
2023-04-14T14:11:52.865Z,51.87
2023-04-14T14:14:22.567Z,52.24
2023-04-14T14:16:51.428Z,52.14
2023-04-14T14:19:20.132Z,52.32
2023-04-14T14:21:48.812Z,52.79
2023-04-14T14:24:17.488Z,51.96
2023-04-14T14:26:46.236Z,52.39
2023-04-14T14:29:14.913Z,51.69
2023-04-14T14:31:43.607Z,51.02
2023-04-14T14:34:12.246Z,50.23
2023-04-14T14:36:40.953Z,50.61
2023-04-14T14:39:09.948Z,50.18
2023-04-14T14:41:39.340Z,49.81
2023-04-14T14:44:08.036Z,50.40
2023-04-14T14:46:36.887Z,49.57
2023-04-14T14:49:05.954Z,50.12
2023-04-14T14:51:35.114Z,50.89
2023-04-14T14:54:09.805Z,50.77
2023-04-14T14:56:39.400Z,50.34
2023-04-14T14:59:10.818Z,50.56
2023-04-14T15:01:39.542Z,49.86
2023-04-14T15:04:08.423Z,49.28
2023-04-14T15:06:37.696Z,50.29
2023-04-14T15:09:06.600Z,51.15
2023-04-14T15:11:35.587Z,50.99
2023-04-14T15:14:04.549Z,50.33
2023-04-14T15:16:33.459Z,51.21
2023-04-14T15:19:02.195Z,51.01
2023-04-14T15:21:32.673Z,51.38
2023-04-14T15:24:01.788Z,51.44
2023-04-14T15:26:31.035Z,51.73
2023-04-14T15:28:59.745Z,52.14
2023-04-14T15:31:29.217Z,51.94
2023-04-14T15:34:04.976Z,52.19
2023-04-14T15:36:33.865Z,52.19
2023-04-14T15:39:02.599Z,52.86
2023-04-14T15:41:31.288Z,52.75
2023-04-14T15:44:00.167Z,53.45
2023-04-14T15:46:29.176Z,53.61
2023-04-14T15:48:58.829Z,53.81
2023-04-14T15:51:27.600Z,54.25
2023-04-14T15:53:56.239Z,54.55
2023-04-14T15:56:25.922Z,54.77
2023-04-14T15:58:54.741Z,55.17
2023-04-14T16:01:23.560Z,55.48
2023-04-14T16:03:52.936Z,55.58
2023-04-14T16:06:21.872Z,55.73
2023-04-14T16:08:50.544Z,55.92
2023-04-14T16:11:19.638Z,56.02
2023-04-14T16:13:48.905Z,56.15
2023-04-14T16:16:17.833Z,56.39
2023-04-14T16:18:47.412Z,56.67
2023-04-14T16:21:16.408Z,56.74
2023-04-14T16:23:45.118Z,57.08
2023-04-14T16:26:13.892Z,57.24
2023-04-14T16:28:43.511Z,57.44
2023-04-14T16:31:12.696Z,57.50
2023-04-14T16:33:41.714Z,57.83
2023-04-14T16:36:11.326Z,58.07
2023-04-14T16:38:39.993Z,58.03
2023-04-14T16:41:08.700Z,58.07
2023-04-14T16:43:37.376Z,58.14
2023-04-14T16:46:08.035Z,58.38
2023-04-14T16:48:37.255Z,58.60
2023-04-14T16:51:08.301Z,59.07
2023-04-14T16:53:38.911Z,59.15
2023-04-14T16:56:08.875Z,59.10
2023-04-14T16:58:38.129Z,59.34
2023-04-14T17:01:07.715Z,59.61
2023-04-14T17:03:36.883Z,59.63
2023-04-14T17:06:06.003Z,59.72
2023-04-14T17:08:34.708Z,59.72
2023-04-14T17:11:03.594Z,60.10
2023-04-14T17:13:32.327Z,60.08
2023-04-14T17:16:08.356Z,60.31
2023-04-14T17:18:38.499Z,60.41
2023-04-14T17:21:07.251Z,60.64
2023-04-14T17:23:37.706Z,60.75
2023-04-14T17:26:06.723Z,60.82
2023-04-14T17:28:35.917Z,61.12
2023-04-14T17:31:13.429Z,61.24
2023-04-14T17:33:43.944Z,61.14
2023-04-14T17:36:15.094Z,61.37
2023-04-14T17:38:44.663Z,61.44
2023-04-14T17:41:13.991Z,61.87
2023-04-14T17:43:42.690Z,62.01
2023-04-14T17:46:11.882Z,62.28
2023-04-14T17:48:41.080Z,68.40
2023-04-14T17:51:10.733Z,68.48
2023-04-14T17:53:39.718Z,58.48
2023-04-14T17:56:08.662Z,52.71
2023-04-14T17:58:37.402Z,53.16
2023-04-14T18:01:06.109Z,54.33
2023-04-14T18:03:35.126Z,55.60
2023-04-14T18:06:03.938Z,56.85
2023-04-14T18:08:32.613Z,57.74
2023-04-14T18:11:01.309Z,58.18
2023-04-14T18:13:30.025Z,58.97
2023-04-14T18:15:58.713Z,59.64
2023-04-14T18:18:27.738Z,60.32
2023-04-14T18:20:56.427Z,60.25
2023-04-14T18:23:25.212Z,60.81
2023-04-14T18:28:32.964Z,61.58
2023-04-14T18:31:01.770Z,68.71
2023-04-14T18:33:31.114Z,66.21
2023-04-14T18:36:03.273Z,57.94
2023-04-14T18:38:31.940Z,52.66
2023-04-14T18:41:02.460Z,52.73
2023-04-14T18:43:32.696Z,54.04
2023-04-14T18:46:01.515Z,55.06
2023-04-14T18:48:30.260Z,56.22
2023-04-14T18:51:02.455Z,57.32
2023-04-14T18:53:31.974Z,58.06
2023-04-14T18:56:01.753Z,58.89
2023-04-14T18:58:31.236Z,59.50
2023-04-14T19:00:59.903Z,60.22
2023-04-14T19:03:28.916Z,61.09
2023-04-14T19:05:58.706Z,61.25
2023-04-14T19:08:27.413Z,61.36
2023-04-14T19:10:58.856Z,68.49
2023-04-14T19:13:27.523Z,65.58
2023-04-14T19:16:11.553Z,55.96
2023-04-14T19:18:40.802Z,53.38
2023-04-14T19:21:09.613Z,55.07
2023-04-14T19:23:38.351Z,55.75
2023-04-14T19:26:08.388Z,56.38
2023-04-14T19:28:39.953Z,57.12
2023-04-14T19:31:08.708Z,57.76
2023-04-14T19:33:38.102Z,58.64
2023-04-14T19:36:17.650Z,59.74
2023-04-14T19:38:46.499Z,60.55
2023-04-14T19:41:15.672Z,60.78
2023-04-14T19:43:45.656Z,61.31
2023-04-14T19:46:15.068Z,61.33
2023-04-14T19:48:45.198Z,66.84
2023-04-14T19:51:13.941Z,65.07
2023-04-14T19:53:43.538Z,54.95
2023-04-14T19:56:12.821Z,53.15
2023-04-14T19:58:41.483Z,55.78
2023-04-14T20:01:11.268Z,56.70
2023-04-14T20:04:06.254Z,56.83
2023-04-14T20:06:29.688Z,57.30
2023-04-14T20:08:58.444Z,59.15
2023-04-14T20:11:28.220Z,59.60
2023-04-14T20:13:56.928Z,60.69
2023-04-14T20:16:26.478Z,60.08
2023-04-14T20:18:55.487Z,60.58
2023-04-14T20:21:24.216Z,61.34
2023-04-14T20:23:52.888Z,61.49
2023-04-14T20:26:23.140Z,61.09
2023-04-14T20:28:51.834Z,66.25
2023-04-14T20:31:22.216Z,66.57
2023-04-14T20:33:51.032Z,57.13
2023-04-14T20:36:19.697Z,53.33
2023-04-14T20:38:48.339Z,54.39
2023-04-14T20:41:17.088Z,57.57
2023-04-14T20:43:45.728Z,57.27
2023-04-14T20:46:14.504Z,59.04
2023-04-14T20:48:43.693Z,59.08
2023-04-14T20:51:12.428Z,60.50
2023-04-14T20:53:41.081Z,60.82
2023-04-14T20:56:10.071Z,61.63
2023-04-14T20:58:38.747Z,67.35
2023-04-14T21:01:07.595Z,64.68
2023-04-14T21:03:36.412Z,57.22
2023-04-14T21:06:05.753Z,54.23
2023-04-14T21:08:34.501Z,54.73
2023-04-14T21:11:15.622Z,56.83
2023-04-14T21:15:26.407Z,57.90
2023-04-14T21:16:35.905Z,58.50
2023-04-14T21:19:05.625Z,61.11
2023-04-14T21:21:34.845Z,66.33
2023-04-14T21:24:03.735Z,66.00
2023-04-14T21:26:32.474Z,57.91
2023-04-14T21:29:01.739Z,52.84
2023-04-14T21:31:30.884Z,53.78
2023-04-14T21:34:00.043Z,54.69
2023-04-14T21:36:28.782Z,56.44
2023-04-14T21:38:58.048Z,58.57
2023-04-14T21:41:27.433Z,59.78
2023-04-14T21:43:56.108Z,61.24
2023-04-14T21:46:25.327Z,63.63
2023-04-14T21:48:54.073Z,65.38
2023-04-14T21:51:22.747Z,58.12
2023-04-14T21:53:52.151Z,55.04
2023-04-14T21:56:20.887Z,56.00
2023-04-14T21:58:49.636Z,58.25
2023-04-14T22:01:18.368Z,58.71
2023-04-14T22:03:47.462Z,59.84
2023-04-14T22:06:17.887Z,60.71
2023-04-14T22:08:46.582Z,66.02
2023-04-14T22:11:16.193Z,62.09
2023-04-14T22:13:45.512Z,56.79
2023-04-14T22:16:16.410Z,54.61
2023-04-14T22:18:45.355Z,55.95
2023-04-14T22:21:16.801Z,57.07
2023-04-14T22:23:45.450Z,59.53
2023-04-14T22:26:14.258Z,60.14
2023-04-14T22:28:42.942Z,62.65
2023-04-14T22:31:11.810Z,65.58
2023-04-14T22:33:41.023Z,61.74
2023-04-14T22:36:09.782Z,54.27
2023-04-14T22:38:38.476Z,52.91
2023-04-14T22:41:07.559Z,54.14
2023-04-14T22:43:36.267Z,55.98
2023-04-14T22:46:05.034Z,57.61
2023-04-14T22:48:33.759Z,59.13
2023-04-14T22:51:02.453Z,60.30
2023-04-14T22:53:31.405Z,63.94
2023-04-14T22:56:00.138Z,67.72
2023-04-14T22:58:31.983Z,62.04
2023-04-14T23:01:06.541Z,54.88
2023-04-14T23:03:41.327Z,54.71
2023-04-14T23:06:10.099Z,55.74
2023-04-14T23:08:38.850Z,57.53
2023-04-14T23:11:08.383Z,59.67
2023-04-14T23:13:37.074Z,59.88
2023-04-14T23:16:06.231Z,60.67
2023-04-14T23:18:35.259Z,68.96
2023-04-14T23:21:04.132Z,65.47
2023-04-14T23:23:32.786Z,59.98
2023-04-14T23:26:01.792Z,53.85
2023-04-14T23:28:30.550Z,53.98
2023-04-14T23:30:59.646Z,55.74
2023-04-14T23:33:28.403Z,57.53
2023-04-14T23:35:57.080Z,58.92
2023-04-14T23:38:26.274Z,60.23
2023-04-14T23:40:59.117Z,67.08
2023-04-14T23:43:29.169Z,64.96
2023-04-14T23:45:57.990Z,56.52
2023-04-14T23:48:30.439Z,53.53
2023-04-14T23:51:13.729Z,55.11
2023-04-14T23:53:45.397Z,56.85
2023-04-14T23:56:14.159Z,58.03
2023-04-14T23:58:43.109Z,59.38
